sensor_id;sensor_type;location;lat;lon;timestamp;pressure;altitude;pressure_sealevel;temperature;humidity
10176;BME280;18221;38.704;0.152;2023-05-09T00:04:58;99277.38;;;23.90;49.92
10176;BME280;18221;38.704;0.152;2023-05-09T00:07:26;99281.13;;;23.89;49.82
10176;BME280;18221;38.704;0.152;2023-05-09T00:09:55;99283.78;;;23.96;49.63
10176;BME280;18221;38.704;0.152;2023-05-09T00:12:25;99275.94;;;23.88;49.52
10176;BME280;18221;38.704;0.152;2023-05-09T00:14:54;99278.06;;;23.79;49.64
10176;BME280;18221;38.704;0.152;2023-05-09T00:17:23;99271.38;;;23.82;49.63
10176;BME280;18221;38.704;0.152;2023-05-09T00:19:52;99272.66;;;23.79;50.01
10176;BME280;18221;38.704;0.152;2023-05-09T00:22:23;99255.13;;;23.82;49.59
10176;BME280;18221;38.704;0.152;2023-05-09T00:24:51;99259.25;;;23.84;49.46
10176;BME280;18221;38.704;0.152;2023-05-09T00:27:20;99250.09;;;23.85;49.52
10176;BME280;18221;38.704;0.152;2023-05-09T00:29:48;99242.16;;;23.84;49.51
10176;BME280;18221;38.704;0.152;2023-05-09T00:32:17;99240.09;;;23.79;49.67
10176;BME280;18221;38.704;0.152;2023-05-09T00:34:46;99245.91;;;23.83;49.70
10176;BME280;18221;38.704;0.152;2023-05-09T00:37:14;99245.47;;;23.86;49.54
10176;BME280;18221;38.704;0.152;2023-05-09T00:39:46;99244.44;;;23.87;49.26
10176;BME280;18221;38.704;0.152;2023-05-09T00:42:15;99238.41;;;23.85;49.30
10176;BME280;18221;38.704;0.152;2023-05-09T00:44:43;99242.56;;;23.87;49.40
10176;BME280;18221;38.704;0.152;2023-05-09T00:47:12;99237.56;;;23.84;49.17
10176;BME280;18221;38.704;0.152;2023-05-09T00:49:41;99231.75;;;23.81;48.89
10176;BME280;18221;38.704;0.152;2023-05-09T00:52:10;99230.53;;;23.77;49.02
10176;BME280;18221;38.704;0.152;2023-05-09T00:54:39;99226.56;;;23.73;48.84
10176;BME280;18221;38.704;0.152;2023-05-09T00:57:09;99222.66;;;23.69;48.58
10176;BME280;18221;38.704;0.152;2023-05-09T00:59:38;99223.94;;;23.66;48.53
10176;BME280;18221;38.704;0.152;2023-05-09T01:02:06;99224.13;;;23.65;48.36
10176;BME280;18221;38.704;0.152;2023-05-09T01:04:35;99217.66;;;23.66;48.23
10176;BME280;18221;38.704;0.152;2023-05-09T01:07:10;99223.88;;;23.73;47.72
10176;BME280;18221;38.704;0.152;2023-05-09T01:09:52;99217.84;;;23.71;47.61
10176;BME280;18221;38.704;0.152;2023-05-09T01:12:36;99219.72;;;23.70;47.67
10176;BME280;18221;38.704;0.152;2023-05-09T01:15:15;99225.13;;;23.70;46.94
10176;BME280;18221;38.704;0.152;2023-05-09T01:17:54;99221.81;;;23.68;46.54
10176;BME280;18221;38.704;0.152;2023-05-09T01:20:32;99218.09;;;23.63;45.75
10176;BME280;18221;38.704;0.152;2023-05-09T01:23:33;99211.22;;;23.67;44.36
10176;BME280;18221;38.704;0.152;2023-05-09T01:26:19;99212.84;;;23.68;43.83
10176;BME280;18221;38.704;0.152;2023-05-09T01:31:58;99215.09;;;23.77;42.50
10176;BME280;18221;38.704;0.152;2023-05-09T01:34:31;99211.28;;;23.85;41.76
10176;BME280;18221;38.704;0.152;2023-05-09T01:37:05;99210.03;;;23.81;41.32
10176;BME280;18221;38.704;0.152;2023-05-09T01:39:37;99202.31;;;23.84;40.55
10176;BME280;18221;38.704;0.152;2023-05-09T01:42:08;99206.47;;;23.87;39.58
10176;BME280;18221;38.704;0.152;2023-05-09T01:44:42;99202.66;;;23.94;39.12
10176;BME280;18221;38.704;0.152;2023-05-09T01:47:13;99200.53;;;23.96;39.18
10176;BME280;18221;38.704;0.152;2023-05-09T01:49:43;99196.78;;;23.98;39.28
10176;BME280;18221;38.704;0.152;2023-05-09T01:52:17;99202.88;;;23.93;38.27
10176;BME280;18221;38.704;0.152;2023-05-09T01:54:50;99196.13;;;24.02;38.34
10176;BME280;18221;38.704;0.152;2023-05-09T01:57:19;99188.22;;;24.01;38.33
10176;BME280;18221;38.704;0.152;2023-05-09T01:59:51;99188.81;;;24.03;38.79
10176;BME280;18221;38.704;0.152;2023-05-09T02:02:21;99183.66;;;23.94;38.71
10176;BME280;18221;38.704;0.152;2023-05-09T02:04:51;99184.59;;;23.82;39.00
10176;BME280;18221;38.704;0.152;2023-05-09T02:07:22;99196.28;;;23.82;38.82
10176;BME280;18221;38.704;0.152;2023-05-09T02:09:52;99187.53;;;23.80;38.47
10176;BME280;18221;38.704;0.152;2023-05-09T02:12:23;99174.16;;;23.85;39.07
10176;BME280;18221;38.704;0.152;2023-05-09T02:14:53;99181.63;;;23.90;39.80
10176;BME280;18221;38.704;0.152;2023-05-09T02:17:22;99186.78;;;23.98;41.09
10176;BME280;18221;38.704;0.152;2023-05-09T02:19:50;99175.28;;;23.96;42.32
10176;BME280;18221;38.704;0.152;2023-05-09T02:22:19;99177.03;;;23.90;43.17
10176;BME280;18221;38.704;0.152;2023-05-09T02:24:48;99185.44;;;23.82;43.56
10176;BME280;18221;38.704;0.152;2023-05-09T02:27:18;99176.31;;;23.77;44.12
10176;BME280;18221;38.704;0.152;2023-05-09T02:29:54;99178.41;;;23.75;44.53
10176;BME280;18221;38.704;0.152;2023-05-09T02:32:27;99185.72;;;23.74;44.73
10176;BME280;18221;38.704;0.152;2023-05-09T02:34:58;99180.53;;;23.66;44.94
10176;BME280;18221;38.704;0.152;2023-05-09T02:37:28;99184.03;;;23.73;44.52
10176;BME280;18221;38.704;0.152;2023-05-09T02:39:57;99175.53;;;23.70;43.14
10176;BME280;18221;38.704;0.152;2023-05-09T02:42:26;99173.84;;;23.69;42.86
10176;BME280;18221;38.704;0.152;2023-05-09T02:44:57;99168.44;;;23.69;44.25
10176;BME280;18221;38.704;0.152;2023-05-09T02:47:26;99164.22;;;23.73;44.76
10176;BME280;18221;38.704;0.152;2023-05-09T02:49:55;99172.81;;;23.70;45.56
10176;BME280;18221;38.704;0.152;2023-05-09T02:52:23;99188.72;;;23.60;46.12
10176;BME280;18221;38.704;0.152;2023-05-09T02:54:52;99179.38;;;23.56;46.41
10176;BME280;18221;38.704;0.152;2023-05-09T02:57:20;99176.75;;;23.67;46.05
10176;BME280;18221;38.704;0.152;2023-05-09T02:59:49;99180.97;;;23.63;45.38
10176;BME280;18221;38.704;0.152;2023-05-09T03:02:19;99171.84;;;23.58;45.64
10176;BME280;18221;38.704;0.152;2023-05-09T03:04:49;99175.63;;;23.57;46.17
10176;BME280;18221;38.704;0.152;2023-05-09T03:07:18;99181.47;;;23.54;46.49
10176;BME280;18221;38.704;0.152;2023-05-09T03:09:46;99181.03;;;23.57;46.64
10176;BME280;18221;38.704;0.152;2023-05-09T03:12:15;99179.59;;;23.54;47.02
10176;BME280;18221;38.704;0.152;2023-05-09T03:14:44;99181.47;;;23.54;47.17
10176;BME280;18221;38.704;0.152;2023-05-09T03:17:13;99181.91;;;23.51;47.39
10176;BME280;18221;38.704;0.152;2023-05-09T03:19:44;99185.44;;;23.51;47.17
10176;BME280;18221;38.704;0.152;2023-05-09T03:22:13;99177.75;;;23.48;47.18
10176;BME280;18221;38.704;0.152;2023-05-09T03:24:42;99174.22;;;23.48;47.41
10176;BME280;18221;38.704;0.152;2023-05-09T03:27:11;99172.53;;;23.47;47.32
10176;BME280;18221;38.704;0.152;2023-05-09T03:29:40;99172.53;;;23.47;47.66
10176;BME280;18221;38.704;0.152;2023-05-09T03:32:08;99170.06;;;23.45;47.40
10176;BME280;18221;38.704;0.152;2023-05-09T03:34:37;99171.09;;;23.44;47.51
10176;BME280;18221;38.704;0.152;2023-05-09T03:37:08;99169.56;;;23.55;47.36
10176;BME280;18221;38.704;0.152;2023-05-09T03:39:36;99167.25;;;23.58;47.11
10176;BME280;18221;38.704;0.152;2023-05-09T03:42:05;99173.34;;;23.54;47.45
10176;BME280;18221;38.704;0.152;2023-05-09T03:44:34;99165.66;;;23.51;47.40
10176;BME280;18221;38.704;0.152;2023-05-09T03:47:03;99171.06;;;23.51;47.44
10176;BME280;18221;38.704;0.152;2023-05-09T03:49:31;99169.88;;;23.40;47.81
10176;BME280;18221;38.704;0.152;2023-05-09T03:52:00;99166.13;;;23.41;48.00
10176;BME280;18221;38.704;0.152;2023-05-09T03:54:30;99166.94;;;23.42;48.06
10176;BME280;18221;38.704;0.152;2023-05-09T03:57:01;99166.13;;;23.34;48.29
10176;BME280;18221;38.704;0.152;2023-05-09T03:59:30;99167.78;;;23.35;48.50
10176;BME280;18221;38.704;0.152;2023-05-09T04:01:58;99158.63;;;23.37;48.24
10176;BME280;18221;38.704;0.152;2023-05-09T04:04:27;99157.75;;;23.36;48.24
10176;BME280;18221;38.704;0.152;2023-05-09T04:06:56;99148.00;;;23.28;48.66
10176;BME280;18221;38.704;0.152;2023-05-09T04:09:25;99152.19;;;23.38;48.57
10176;BME280;18221;38.704;0.152;2023-05-09T04:11:55;99162.19;;;23.37;48.44
10176;BME280;18221;38.704;0.152;2023-05-09T04:14:23;99161.56;;;23.28;48.57
10176;BME280;18221;38.704;0.152;2023-05-09T04:16:52;99160.34;;;23.24;48.78
10176;BME280;18221;38.704;0.152;2023-05-09T04:19:20;99165.16;;;23.22;48.75
10176;BME280;18221;38.704;0.152;2023-05-09T04:21:49;99154.31;;;23.22;49.11
10176;BME280;18221;38.704;0.152;2023-05-09T04:24:17;99155.59;;;23.20;49.24
10176;BME280;18221;38.704;0.152;2023-05-09T04:26:48;99160.16;;;23.19;49.56
10176;BME280;18221;38.704;0.152;2023-05-09T04:29:18;99161.88;;;23.14;50.03
10176;BME280;18221;38.704;0.152;2023-05-09T04:31:47;99168.50;;;23.18;50.14
10176;BME280;18221;38.704;0.152;2023-05-09T04:34:15;99163.31;;;23.16;50.35
10176;BME280;18221;38.704;0.152;2023-05-09T04:36:44;99155.41;;;23.15;50.20
10176;BME280;18221;38.704;0.152;2023-05-09T04:39:12;99156.44;;;23.14;50.42
10176;BME280;18221;38.704;0.152;2023-05-09T04:41:41;99158.72;;;23.17;50.33
10176;BME280;18221;38.704;0.152;2023-05-09T04:44:12;99159.56;;;23.17;50.40
10176;BME280;18221;38.704;0.152;2023-05-09T04:46:42;99161.22;;;23.18;50.39
10176;BME280;18221;38.704;0.152;2023-05-09T04:49:11;99166.59;;;23.25;50.29
10176;BME280;18221;38.704;0.152;2023-05-09T04:51:40;99165.34;;;23.27;49.77
10176;BME280;18221;38.704;0.152;2023-05-09T04:54:08;99159.50;;;23.30;49.78
10176;BME280;18221;38.704;0.152;2023-05-09T04:56:37;99167.78;;;23.35;49.83
10176;BME280;18221;38.704;0.152;2023-05-09T04:59:05;99165.28;;;23.41;49.54
10176;BME280;18221;38.704;0.152;2023-05-09T05:01:36;99157.16;;;23.41;49.20
10176;BME280;18221;38.704;0.152;2023-05-09T05:04:06;99155.91;;;23.43;49.33
10176;BME280;18221;38.704;0.152;2023-05-09T05:06:34;99155.66;;;23.45;49.62
10176;BME280;18221;38.704;0.152;2023-05-09T05:09:03;99149.38;;;23.51;49.71
10176;BME280;18221;38.704;0.152;2023-05-09T05:11:32;99157.44;;;23.57;49.87
10176;BME280;18221;38.704;0.152;2023-05-09T05:14:01;99164.31;;;23.60;50.03
10176;BME280;18221;38.704;0.152;2023-05-09T05:16:30;99166.41;;;23.58;50.71
10176;BME280;18221;38.704;0.152;2023-05-09T05:18:58;99180.97;;;23.63;50.92
10176;BME280;18221;38.704;0.152;2023-05-09T05:21:29;99172.19;;;23.68;51.21
10176;BME280;18221;38.704;0.152;2023-05-09T05:23:58;99175.91;;;23.73;50.71
10176;BME280;18221;38.704;0.152;2023-05-09T05:26:27;99171.03;;;23.82;50.90
10176;BME280;18221;38.704;0.152;2023-05-09T05:28:55;99172.69;;;23.83;50.98
10176;BME280;18221;38.704;0.152;2023-05-09T05:31:24;99174.63;;;23.76;50.97
10176;BME280;18221;38.704;0.152;2023-05-09T05:33:53;99169.25;;;23.69;51.03
10176;BME280;18221;38.704;0.152;2023-05-09T05:36:22;99165.88;;;23.74;50.83
10176;BME280;18221;38.704;0.152;2023-05-09T05:38:52;99176.91;;;23.79;51.11
10176;BME280;18221;38.704;0.152;2023-05-09T05:41:21;99172.50;;;23.78;50.92
10176;BME280;18221;38.704;0.152;2023-05-09T05:43:49;99178.78;;;23.78;51.20
10176;BME280;18221;38.704;0.152;2023-05-09T05:46:18;99180.94;;;23.70;51.28
10176;BME280;18221;38.704;0.152;2023-05-09T05:48:47;99178.41;;;23.75;51.15
10176;BME280;18221;38.704;0.152;2023-05-09T05:51:15;99178.34;;;23.81;51.07
10176;BME280;18221;38.704;0.152;2023-05-09T05:53:44;99182.94;;;23.81;50.98
10176;BME280;18221;38.704;0.152;2023-05-09T05:56:15;99185.00;;;23.85;50.86
10176;BME280;18221;38.704;0.152;2023-05-09T05:58:44;99192.91;;;23.87;50.98
10176;BME280;18221;38.704;0.152;2023-05-09T06:01:12;99173.31;;;23.85;50.81
10176;BME280;18221;38.704;0.152;2023-05-09T06:03:41;99171.44;;;23.85;51.03
10176;BME280;18221;38.704;0.152;2023-05-09T06:06:10;99169.50;;;23.92;50.94
10176;BME280;18221;38.704;0.152;2023-05-09T06:08:38;99175.28;;;23.96;50.70
10176;BME280;18221;38.704;0.152;2023-05-09T06:11:18;99174.00;;;23.98;50.80
10176;BME280;18221;38.704;0.152;2023-05-09T06:13:47;99173.13;;;24.11;50.53
10176;BME280;18221;38.704;0.152;2023-05-09T06:16:15;99173.94;;;24.12;50.46
10176;BME280;18221;38.704;0.152;2023-05-09T06:18:44;99175.09;;;24.22;50.51
10176;BME280;18221;38.704;0.152;2023-05-09T06:21:13;99165.75;;;24.18;50.74
10176;BME280;18221;38.704;0.152;2023-05-09T06:23:41;99166.50;;;24.25;50.49
10176;BME280;18221;38.704;0.152;2023-05-09T06:26:10;99172.38;;;24.22;50.21
10176;BME280;18221;38.704;0.152;2023-05-09T06:28:41;99168.03;;;24.21;50.62
10176;BME280;18221;38.704;0.152;2023-05-09T06:31:10;99170.22;;;24.31;50.23
10176;BME280;18221;38.704;0.152;2023-05-09T06:33:39;99166.38;;;24.38;49.99
10176;BME280;18221;38.704;0.152;2023-05-09T06:36:08;99176.34;;;24.44;49.95
10176;BME280;18221;38.704;0.152;2023-05-09T06:38:37;99171.13;;;24.43;49.82
10176;BME280;18221;38.704;0.152;2023-05-09T06:41:06;99170.44;;;24.29;50.03
10176;BME280;18221;38.704;0.152;2023-05-09T06:43:35;99171.59;;;24.40;49.92
10176;BME280;18221;38.704;0.152;2023-05-09T06:46:05;99170.09;;;24.44;49.66
10176;BME280;18221;38.704;0.152;2023-05-09T06:48:34;99169.09;;;24.38;49.88
10176;BME280;18221;38.704;0.152;2023-05-09T06:51:02;99169.09;;;24.38;50.25
10176;BME280;18221;38.704;0.152;2023-05-09T06:53:31;99167.28;;;24.32;50.05
10176;BME280;18221;38.704;0.152;2023-05-09T06:56:00;99168.94;;;24.33;49.99
10176;BME280;18221;38.704;0.152;2023-05-09T06:58:29;99175.88;;;24.29;50.19
10176;BME280;18221;38.704;0.152;2023-05-09T07:00:57;99173.16;;;24.29;50.08
10176;BME280;18221;38.704;0.152;2023-05-09T07:03:27;99167.19;;;24.21;50.15
10176;BME280;18221;38.704;0.152;2023-05-09T07:05:56;99156.34;;;24.39;49.57
10176;BME280;18221;38.704;0.152;2023-05-09T07:08:25;99164.59;;;24.32;49.45
10176;BME280;18221;38.704;0.152;2023-05-09T07:10:54;99165.75;;;24.18;49.47
10176;BME280;18221;38.704;0.152;2023-05-09T07:13:22;99169.53;;;24.35;49.46
10176;BME280;18221;38.704;0.152;2023-05-09T07:15:51;99162.78;;;24.44;49.65
10176;BME280;18221;38.704;0.152;2023-05-09T07:18:20;99166.53;;;24.43;49.92
10176;BME280;18221;38.704;0.152;2023-05-09T07:20:50;99169.78;;;24.34;50.12
10176;BME280;18221;38.704;0.152;2023-05-09T07:23:19;99166.47;;;24.50;49.86
10176;BME280;18221;38.704;0.152;2023-05-09T07:25:47;99159.66;;;24.41;49.93
10176;BME280;18221;38.704;0.152;2023-05-09T07:28:16;99163.06;;;24.36;50.13
10176;BME280;18221;38.704;0.152;2023-05-09T07:30:45;99156.44;;;24.50;50.10
10176;BME280;18221;38.704;0.152;2023-05-09T07:33:14;99161.41;;;24.53;49.81
10176;BME280;18221;38.704;0.152;2023-05-09T07:35:42;99156.78;;;24.79;49.02
10176;BME280;18221;38.704;0.152;2023-05-09T07:38:13;99146.63;;;25.04;48.77
10176;BME280;18221;38.704;0.152;2023-05-09T07:40:41;99144.16;;;25.02;48.12
10176;BME280;18221;38.704;0.152;2023-05-09T07:43:10;99149.41;;;25.15;48.01
10176;BME280;18221;38.704;0.152;2023-05-09T07:45:39;99146.50;;;24.81;48.87
10176;BME280;18221;38.704;0.152;2023-05-09T07:48:07;99138.44;;;24.92;48.57
10176;BME280;18221;38.704;0.152;2023-05-09T07:50:36;99152.19;;;24.79;49.22
10176;BME280;18221;38.704;0.152;2023-05-09T07:53:05;99146.50;;;24.99;48.95
10176;BME280;18221;38.704;0.152;2023-05-09T07:55:36;99140.25;;;25.28;48.17
10176;BME280;18221;38.704;0.152;2023-05-09T07:58:05;99148.41;;;25.28;48.29
10176;BME280;18221;38.704;0.152;2023-05-09T08:00:33;99137.38;;;25.53;47.77
10176;BME280;18221;38.704;0.152;2023-05-09T08:03:02;99140.78;;;25.78;47.12
10176;BME280;18221;38.704;0.152;2023-05-09T08:05:31;99136.06;;;25.97;46.55
10176;BME280;18221;38.704;0.152;2023-05-09T08:07:59;99147.09;;;26.13;46.09
10176;BME280;18221;38.704;0.152;2023-05-09T08:10:35;99140.00;;;25.59;47.40
10176;BME280;18221;38.704;0.152;2023-05-09T08:13:03;99128.81;;;25.67;47.55
10176;BME280;18221;38.704;0.152;2023-05-09T08:15:32;99127.72;;;25.68;47.54
10176;BME280;18221;38.704;0.152;2023-05-09T08:18:01;99129.59;;;25.56;48.00
10176;BME280;18221;38.704;0.152;2023-05-09T08:20:29;99119.25;;;25.88;47.49
10176;BME280;18221;38.704;0.152;2023-05-09T08:23:00;99121.00;;;25.94;46.93
10176;BME280;18221;38.704;0.152;2023-05-09T08:25:28;99107.88;;;25.80;47.47
10176;BME280;18221;38.704;0.152;2023-05-09T08:27:59;99112.97;;;25.88;47.21
10176;BME280;18221;38.704;0.152;2023-05-09T08:30:27;99108.72;;;25.80;47.32
10176;BME280;18221;38.704;0.152;2023-05-09T08:32:56;99112.47;;;25.67;47.68
10176;BME280;18221;38.704;0.152;2023-05-09T08:35:24;99116.41;;;25.83;47.77
10176;BME280;18221;38.704;0.152;2023-05-09T08:37:53;99121.00;;;25.83;48.11
10176;BME280;18221;38.704;0.152;2023-05-09T08:40:22;99120.28;;;25.64;48.12
10176;BME280;18221;38.704;0.152;2023-05-09T08:42:51;99115.28;;;25.49;49.17
10176;BME280;18221;38.704;0.152;2023-05-09T08:45:25;99124.03;;;25.51;49.35
10176;BME280;18221;38.704;0.152;2023-05-09T08:47:58;99134.19;;;25.56;49.06
10176;BME280;18221;38.704;0.152;2023-05-09T08:50:27;99135.06;;;25.80;48.63
10176;BME280;18221;38.704;0.152;2023-05-09T08:52:56;99133.06;;;25.87;48.31
10176;BME280;18221;38.704;0.152;2023-05-09T08:55:25;99122.06;;;25.82;48.51
10176;BME280;18221;38.704;0.152;2023-05-09T08:57:54;99129.41;;;25.81;48.29
10176;BME280;18221;38.704;0.152;2023-05-09T09:00:26;99121.00;;;25.83;48.70
10176;BME280;18221;38.704;0.152;2023-05-09T09:02:56;99120.31;;;25.75;48.47
10176;BME280;18221;38.704;0.152;2023-05-09T09:05:27;99113.78;;;26.00;48.76
10176;BME280;18221;38.704;0.152;2023-05-09T09:07:59;99109.44;;;25.99;48.31
10176;BME280;18221;38.704;0.152;2023-05-09T09:10:31;99107.78;;;26.32;47.73
10176;BME280;18221;38.704;0.152;2023-05-09T09:13:02;99111.69;;;26.36;46.94
10176;BME280;18221;38.704;0.152;2023-05-09T09:15:37;99118.44;;;26.46;46.76
10176;BME280;18221;38.704;0.152;2023-05-09T09:18:08;99118.06;;;26.42;46.77
10176;BME280;18221;38.704;0.152;2023-05-09T09:20:44;99124.13;;;26.32;47.12
10176;BME280;18221;38.704;0.152;2023-05-09T09:23:18;99119.25;;;26.23;47.25
10176;BME280;18221;38.704;0.152;2023-05-09T09:25:47;99117.72;;;26.15;47.48
10176;BME280;18221;38.704;0.152;2023-05-09T09:28:19;99116.06;;;26.26;47.22
10176;BME280;18221;38.704;0.152;2023-05-09T09:30:51;99106.50;;;26.35;46.64
10176;BME280;18221;38.704;0.152;2023-05-09T09:33:20;99115.47;;;26.47;45.67
10176;BME280;18221;38.704;0.152;2023-05-09T09:35:52;99119.69;;;26.55;43.53
10176;BME280;18221;38.704;0.152;2023-05-09T09:38:23;99112.72;;;26.47;43.92
10176;BME280;18221;38.704;0.152;2023-05-09T09:40:57;99110.00;;;26.59;42.65
10176;BME280;18221;38.704;0.152;2023-05-09T09:43:31;99113.88;;;26.63;43.38
10176;BME280;18221;38.704;0.152;2023-05-09T09:46:03;99108.69;;;26.61;44.30
10176;BME280;18221;38.704;0.152;2023-05-09T09:48:34;99107.59;;;26.62;45.28
10176;BME280;18221;38.704;0.152;2023-05-09T09:51:08;99105.03;;;26.44;46.20
10176;BME280;18221;38.704;0.152;2023-05-09T09:53:42;99104.56;;;26.59;46.62
10176;BME280;18221;38.704;0.152;2023-05-09T09:56:11;99104.72;;;26.41;47.22
10176;BME280;18221;38.704;0.152;2023-05-09T09:58:39;99097.09;;;26.54;47.19
10176;BME280;18221;38.704;0.152;2023-05-09T10:01:12;99096.22;;;26.65;46.82
10176;BME280;18221;38.704;0.152;2023-05-09T10:03:44;99088.50;;;26.85;46.78
10176;BME280;18221;38.704;0.152;2023-05-09T10:06:15;99090.34;;;26.96;46.12
10176;BME280;18221;38.704;0.152;2023-05-09T10:08:45;99087.31;;;26.93;45.74
10176;BME280;18221;38.704;0.152;2023-05-09T10:11:15;99096.81;;;26.90;45.86
10176;BME280;18221;38.704;0.152;2023-05-09T10:13:45;99085.44;;;26.70;46.44
10176;BME280;18221;38.704;0.152;2023-05-09T10:16:15;99086.09;;;27.01;46.07
10176;BME280;18221;38.704;0.152;2023-05-09T10:18:44;99078.94;;;27.11;45.52
10176;BME280;18221;38.704;0.152;2023-05-09T10:21:16;99078.22;;;26.87;45.83
10176;BME280;18221;38.704;0.152;2023-05-09T10:23:47;99084.75;;;26.75;45.79
10176;BME280;18221;38.704;0.152;2023-05-09T10:26:23;99085.28;;;26.88;45.32
10176;BME280;18221;38.704;0.152;2023-05-09T10:28:56;99091.22;;;26.85;45.24
10176;BME280;18221;38.704;0.152;2023-05-09T10:31:28;99077.75;;;26.67;46.02
10176;BME280;18221;38.704;0.152;2023-05-09T10:34:04;99070.19;;;26.69;46.17
10176;BME280;18221;38.704;0.152;2023-05-09T10:36:37;99064.00;;;26.74;46.29
10176;BME280;18221;38.704;0.152;2023-05-09T10:39:07;99072.75;;;26.87;45.87
10176;BME280;18221;38.704;0.152;2023-05-09T10:41:38;99055.28;;;27.00;45.32
10176;BME280;18221;38.704;0.152;2023-05-09T10:44:07;99059.53;;;26.96;45.26
10176;BME280;18221;38.704;0.152;2023-05-09T10:46:39;99054.53;;;26.65;45.94
10176;BME280;18221;38.704;0.152;2023-05-09T10:49:08;99052.13;;;26.40;46.54
10176;BME280;18221;38.704;0.152;2023-05-09T10:51:37;99051.88;;;26.42;46.95
10176;BME280;18221;38.704;0.152;2023-05-09T10:54:14;99055.09;;;26.38;46.31
10176;BME280;18221;38.704;0.152;2023-05-09T10:56:43;99043.56;;;26.20;46.27
10176;BME280;18221;38.704;0.152;2023-05-09T10:59:33;99042.03;;;26.12;46.55
10176;BME280;18221;38.704;0.152;2023-05-09T11:02:11;99044.34;;;25.97;46.77
10176;BME280;18221;38.704;0.152;2023-05-09T11:04:43;99043.19;;;25.93;46.91
10176;BME280;18221;38.704;0.152;2023-05-09T11:07:24;99040.31;;;26.00;47.32
10176;BME280;18221;38.704;0.152;2023-05-09T11:10:07;99039.16;;;25.72;48.12
10176;BME280;18221;38.704;0.152;2023-05-09T11:12:53;99042.47;;;25.98;48.46
10176;BME280;18221;38.704;0.152;2023-05-09T11:15:22;99024.72;;;26.18;47.88
10176;BME280;18221;38.704;0.152;2023-05-09T11:18:06;99030.94;;;26.42;47.60
10176;BME280;18221;38.704;0.152;2023-05-09T11:20:35;99035.31;;;26.43;46.85
10176;BME280;18221;38.704;0.152;2023-05-09T11:23:09;99030.59;;;26.38;47.06
10176;BME280;18221;38.704;0.152;2023-05-09T11:25:39;99027.63;;;26.40;47.02
10176;BME280;18221;38.704;0.152;2023-05-09T11:28:09;99022.25;;;26.57;46.74
10176;BME280;18221;38.704;0.152;2023-05-09T11:30:42;99019.22;;;26.81;46.34
10176;BME280;18221;38.704;0.152;2023-05-09T11:33:24;99011.97;;;26.87;45.66
10176;BME280;18221;38.704;0.152;2023-05-09T11:36:20;99011.31;;;26.68;45.53
10176;BME280;18221;38.704;0.152;2023-05-09T11:39:03;99011.47;;;26.62;45.50
10176;BME280;18221;38.704;0.152;2023-05-09T11:41:40;99010.84;;;26.71;45.89
10176;BME280;18221;38.704;0.152;2023-05-09T11:44:18;99010.06;;;26.59;46.06
10176;BME280;18221;38.704;0.152;2023-05-09T11:46:48;99009.13;;;26.54;46.00
10176;BME280;18221;38.704;0.152;2023-05-09T11:49:18;99003.59;;;26.49;46.26
10176;BME280;18221;38.704;0.152;2023-05-09T11:51:46;99005.38;;;26.43;47.04
10176;BME280;18221;38.704;0.152;2023-05-09T11:54:15;99000.88;;;26.37;47.01
10176;BME280;18221;38.704;0.152;2023-05-09T11:56:45;98997.97;;;26.55;47.09
10176;BME280;18221;38.704;0.152;2023-05-09T11:59:14;99007.66;;;26.63;46.81
10176;BME280;18221;38.704;0.152;2023-05-09T12:01:43;98997.25;;;26.60;46.89
10176;BME280;18221;38.704;0.152;2023-05-09T12:04:12;98992.47;;;26.78;46.46
10176;BME280;18221;38.704;0.152;2023-05-09T12:06:47;98996.03;;;26.79;46.63
10176;BME280;18221;38.704;0.152;2023-05-09T12:09:15;98992.81;;;26.70;46.62
10176;BME280;18221;38.704;0.152;2023-05-09T12:11:48;98991.19;;;26.98;46.33
10176;BME280;18221;38.704;0.152;2023-05-09T12:14:27;98993.03;;;27.09;46.17
10176;BME280;18221;38.704;0.152;2023-05-09T12:16:55;98988.56;;;27.19;45.83
10176;BME280;18221;38.704;0.152;2023-05-09T12:19:25;98984.31;;;27.40;45.18
10176;BME280;18221;38.704;0.152;2023-05-09T12:22:00;98984.53;;;27.22;45.70
10176;BME280;18221;38.704;0.152;2023-05-09T12:24:30;98996.69;;;27.47;45.38
10176;BME280;18221;38.704;0.152;2023-05-09T12:27:00;98979.56;;;27.35;45.43
10176;BME280;18221;38.704;0.152;2023-05-09T12:29:30;98984.19;;;27.35;45.48
10176;BME280;18221;38.704;0.152;2023-05-09T12:32:00;98981.13;;;27.48;45.40
10176;BME280;18221;38.704;0.152;2023-05-09T12:34:29;98977.97;;;27.23;45.34
10176;BME280;18221;38.704;0.152;2023-05-09T12:36:59;98972.47;;;27.34;45.41
10176;BME280;18221;38.704;0.152;2023-05-09T12:39:29;98974.00;;;26.97;46.26
10176;BME280;18221;38.704;0.152;2023-05-09T12:41:58;98966.91;;;27.13;46.63
10176;BME280;18221;38.704;0.152;2023-05-09T12:44:27;98972.84;;;27.10;46.28
10176;BME280;18221;38.704;0.152;2023-05-09T12:47:00;98971.31;;;27.14;46.21
10176;BME280;18221;38.704;0.152;2023-05-09T12:49:30;98962.50;;;27.40;45.68
10176;BME280;18221;38.704;0.152;2023-05-09T12:52:17;98961.97;;;27.60;45.55
10176;BME280;18221;38.704;0.152;2023-05-09T12:54:47;98967.16;;;27.61;44.75
10176;BME280;18221;38.704;0.152;2023-05-09T12:57:23;98960.31;;;27.58;44.96
10176;BME280;18221;38.704;0.152;2023-05-09T12:59:58;98962.16;;;27.53;44.23
10176;BME280;18221;38.704;0.152;2023-05-09T13:02:33;98961.31;;;27.19;42.58
10176;BME280;18221;38.704;0.152;2023-05-09T13:05:07;98959.16;;;26.88;42.06
10176;BME280;18221;38.704;0.152;2023-05-09T13:07:42;98956.50;;;26.93;43.29
10176;BME280;18221;38.704;0.152;2023-05-09T13:10:12;98959.06;;;27.00;44.00
10176;BME280;18221;38.704;0.152;2023-05-09T13:12:42;98956.75;;;26.91;43.19
10176;BME280;18221;38.704;0.152;2023-05-09T13:15:14;98952.63;;;27.06;42.16
10176;BME280;18221;38.704;0.152;2023-05-09T13:17:48;98948.41;;;27.31;42.37
10176;BME280;18221;38.704;0.152;2023-05-09T13:20:18;98943.03;;;27.36;41.87
10176;BME280;18221;38.704;0.152;2023-05-09T13:22:48;98937.25;;;27.33;41.62
10176;BME280;18221;38.704;0.152;2023-05-09T13:25:17;98939.84;;;27.39;42.02